createdAt,value
2018-02-24T00:00:54.424Z,99.90
2018-02-24T00:03:20.737Z,99.90
2018-02-24T00:05:47.024Z,99.90
2018-02-24T00:08:13.338Z,99.90
2018-02-24T00:10:39.631Z,99.90
2018-02-24T00:13:06.667Z,99.90
2018-02-24T00:15:33.739Z,99.90
2018-02-24T00:18:00.768Z,99.90
2018-02-24T00:20:27.820Z,99.90
2018-02-24T00:22:54.866Z,99.90
2018-02-24T00:25:21.908Z,99.90
2018-02-24T00:27:48.195Z,99.90
2018-02-24T00:30:14.504Z,99.90
2018-02-24T00:32:40.799Z,99.90
2018-02-24T00:35:07.868Z,99.90
2018-02-24T00:37:34.902Z,99.90
2018-02-24T00:40:01.940Z,99.90
2018-02-24T00:42:28.228Z,99.90
2018-02-24T00:44:54.527Z,99.90
2018-02-24T00:47:20.840Z,99.90
2018-02-24T00:49:47.903Z,99.90
2018-02-24T00:52:14.913Z,99.90
2018-02-24T00:54:41.223Z,99.90
2018-02-24T00:57:07.537Z,99.90
2018-02-24T00:59:33.987Z,99.90
2018-02-24T01:02:00.303Z,99.90
2018-02-24T01:04:26.641Z,99.90
2018-02-24T01:06:52.925Z,99.90
2018-02-24T01:09:19.248Z,99.90
2018-02-24T01:11:46.325Z,99.90
2018-02-24T01:14:12.635Z,99.90
2018-02-24T01:16:38.933Z,99.90
2018-02-24T01:19:05.201Z,99.90
2018-02-24T01:21:32.260Z,99.90
2018-02-24T01:23:58.554Z,99.90
2018-02-24T01:26:24.840Z,99.90
2018-02-24T01:28:51.138Z,99.90
2018-02-24T01:31:17.430Z,99.90
2018-02-24T01:33:43.707Z,99.90
2018-02-24T01:36:10.010Z,99.90
2018-02-24T01:38:37.038Z,99.90
2018-02-24T01:41:03.384Z,99.90
2018-02-24T01:43:31.138Z,99.90
2018-02-24T01:45:57.441Z,99.90
2018-02-24T01:48:23.753Z,99.90
2018-02-24T01:50:50.058Z,99.90
2018-02-24T01:53:16.348Z,99.90
2018-02-24T01:55:43.412Z,99.90
2018-02-24T01:58:10.460Z,99.90
2018-02-24T02:00:37.539Z,99.90
2018-02-24T02:03:03.846Z,99.90
2018-02-24T02:05:30.140Z,99.90
2018-02-24T02:07:57.326Z,99.90
2018-02-24T02:10:23.617Z,99.90
2018-02-24T02:12:49.923Z,99.90
2018-02-24T02:15:16.242Z,99.90
2018-02-24T02:17:42.540Z,99.90
2018-02-24T02:20:09.600Z,99.90
2018-02-24T02:22:35.956Z,99.90
2018-02-24T02:25:02.238Z,99.90
2018-02-24T02:27:29.301Z,99.90
2018-02-24T02:29:55.614Z,99.90
2018-02-24T02:32:22.685Z,99.90
2018-02-24T02:34:48.982Z,99.90
2018-02-24T02:37:15.297Z,99.90
2018-02-24T02:39:42.353Z,99.90
2018-02-24T02:42:08.686Z,99.90
2018-02-24T02:44:35.007Z,99.90
2018-02-24T02:47:02.064Z,99.90
2018-02-24T02:49:28.366Z,99.90
2018-02-24T02:51:54.694Z,99.90
2018-02-24T02:54:20.986Z,99.90
2018-02-24T02:56:47.296Z,99.90
2018-02-24T02:59:14.334Z,99.90
2018-02-24T03:01:40.645Z,99.90
2018-02-24T03:04:06.926Z,99.90
2018-02-24T03:06:33.446Z,99.90
2018-02-24T03:08:59.864Z,99.90
2018-02-24T03:11:26.239Z,99.90
2018-02-24T03:13:52.524Z,99.90
2018-02-24T03:16:18.835Z,99.90
2018-02-24T03:18:45.138Z,99.90
2018-02-24T03:21:11.432Z,99.90
2018-02-24T03:23:38.476Z,99.90
2018-02-24T03:26:05.525Z,99.90
2018-02-24T03:28:32.572Z,99.90
2018-02-24T03:30:59.612Z,99.90
2018-02-24T03:33:25.953Z,99.90
2018-02-24T03:35:52.987Z,99.90
2018-02-24T03:38:20.051Z,99.90
2018-02-24T03:40:47.105Z,99.90
2018-02-24T03:43:13.457Z,99.90
2018-02-24T03:45:41.667Z,99.90
2018-02-24T03:48:07.996Z,99.90
2018-02-24T03:50:34.336Z,99.90
2018-02-24T03:53:00.638Z,99.90
2018-02-24T03:55:26.948Z,99.90
2018-02-24T03:57:53.262Z,99.90
2018-02-24T04:00:19.572Z,99.90
2018-02-24T04:02:46.611Z,99.90
2018-02-24T04:05:13.686Z,99.90
2018-02-24T04:07:39.985Z,99.90
2018-02-24T04:10:07.029Z,99.90
2018-02-24T04:12:33.316Z,99.90
2018-02-24T04:14:59.617Z,99.90
2018-02-24T04:17:25.920Z,99.90
2018-02-24T04:19:52.225Z,99.90
2018-02-24T04:22:18.486Z,99.90
2018-02-24T04:24:45.526Z,99.90
2018-02-24T04:27:11.806Z,99.90
2018-02-24T04:29:38.124Z,99.90
2018-02-24T04:32:05.136Z,99.90
2018-02-24T04:34:31.415Z,99.90
2018-02-24T04:36:57.711Z,99.90
2018-02-24T04:39:24.953Z,99.90
2018-02-24T04:41:51.985Z,99.90
2018-02-24T04:44:18.289Z,99.90
2018-02-24T04:46:44.621Z,99.90
2018-02-24T04:49:10.889Z,99.90
2018-02-24T04:51:37.913Z,99.90
2018-02-24T04:54:04.948Z,99.90
2018-02-24T04:56:31.258Z,99.90
2018-02-24T04:58:57.551Z,99.90
2018-02-24T05:01:24.597Z,99.90
2018-02-24T05:03:51.632Z,99.90
2018-02-24T05:06:18.669Z,99.90
2018-02-24T05:08:46.438Z,99.90
2018-02-24T05:11:13.491Z,99.90
2018-02-24T05:13:40.525Z,99.90
2018-02-24T05:16:06.839Z,99.90
2018-02-24T05:18:33.139Z,99.90
2018-02-24T05:20:59.451Z,99.90
2018-02-24T05:23:25.736Z,99.90
2018-02-24T05:25:52.036Z,99.90
2018-02-24T05:28:18.334Z,99.90
2018-02-24T05:30:45.370Z,99.90
2018-02-24T05:33:11.663Z,99.90
2018-02-24T05:35:37.989Z,99.90
2018-02-24T05:38:04.274Z,99.90
2018-02-24T05:40:30.579Z,99.90
2018-02-24T05:42:56.878Z,99.90
2018-02-24T05:45:23.174Z,99.90
2018-02-24T05:47:49.465Z,99.90
2018-02-24T05:50:15.752Z,99.90
2018-02-24T05:52:42.070Z,99.90
2018-02-24T05:55:08.389Z,99.90
2018-02-24T05:57:34.687Z,99.90
2018-02-24T06:00:01.020Z,99.90
2018-02-24T06:02:28.065Z,99.90
2018-02-24T06:04:55.109Z,99.90
2018-02-24T06:07:21.440Z,99.90
2018-02-24T06:09:48.468Z,99.90
2018-02-24T06:12:15.535Z,99.90
2018-02-24T06:14:42.582Z,99.90
2018-02-24T06:17:09.629Z,99.90
2018-02-24T06:19:35.905Z,99.90
2018-02-24T06:22:02.221Z,99.90
2018-02-24T06:24:30.065Z,99.90
2018-02-24T06:26:57.113Z,99.90
2018-02-24T06:29:23.421Z,99.90
2018-02-24T06:31:49.732Z,99.90
2018-02-24T06:34:16.048Z,99.90
2018-02-24T06:36:42.365Z,99.90
2018-02-24T06:39:08.706Z,99.90
2018-02-24T06:41:35.015Z,99.90
2018-02-24T06:44:01.365Z,99.90
2018-02-24T06:46:28.349Z,99.90
2018-02-24T06:48:54.665Z,99.90
2018-02-24T06:51:21.735Z,99.90
2018-02-24T06:53:48.798Z,99.90
2018-02-24T06:56:15.836Z,99.90
2018-02-24T06:58:42.891Z,99.90
2018-02-24T07:01:09.974Z,99.90
2018-02-24T07:03:36.259Z,99.90
2018-02-24T07:06:03.313Z,99.90
2018-02-24T07:08:30.386Z,99.90
2018-02-24T07:10:56.665Z,99.90
2018-02-24T07:13:22.966Z,99.90
2018-02-24T07:15:49.322Z,99.90
2018-02-24T07:18:15.607Z,99.90
2018-02-24T07:20:41.918Z,99.90
2018-02-24T07:23:08.937Z,99.90
2018-02-24T07:25:35.238Z,99.90
2018-02-24T07:28:01.544Z,99.90
2018-02-24T07:30:28.204Z,99.90
2018-02-24T07:32:55.301Z,99.90
2018-02-24T07:35:22.359Z,99.90
2018-02-24T07:37:48.708Z,99.90
2018-02-24T07:40:15.040Z,99.90
2018-02-24T07:42:41.343Z,99.90
2018-02-24T07:45:07.717Z,99.90
2018-02-24T07:47:34.262Z,99.90
2018-02-24T07:50:00.589Z,99.90
2018-02-24T07:52:26.898Z,99.90
2018-02-24T07:54:53.234Z,99.90
2018-02-24T07:57:19.558Z,99.90
2018-02-24T07:59:45.877Z,99.90
2018-02-24T08:02:12.189Z,99.90
2018-02-24T08:04:38.498Z,99.90
2018-02-24T08:07:05.574Z,98.90
2018-02-24T08:09:31.878Z,98.90
2018-02-24T08:11:58.965Z,95.80
2018-02-24T08:14:25.369Z,95.80
2018-02-24T08:16:52.414Z,94.60
2018-02-24T08:19:19.495Z,93.00
2018-02-24T08:21:45.782Z,93.00
2018-02-24T08:24:12.835Z,92.80
2018-02-24T08:26:39.937Z,92.60
2018-02-24T08:29:06.238Z,92.50
2018-02-24T08:31:32.537Z,92.10
2018-02-24T08:33:59.595Z,90.10
2018-02-24T08:36:26.723Z,89.70
2018-02-24T08:38:53.782Z,89.30
2018-02-24T08:41:20.828Z,86.80
2018-02-24T08:43:47.905Z,86.50
2018-02-24T08:46:14.232Z,86.50
2018-02-24T08:48:40.539Z,83.80
2018-02-24T08:51:07.609Z,82.50
2018-02-24T08:53:33.918Z,82.40
2018-02-24T08:56:00.989Z,84.00
2018-02-24T08:58:28.044Z,82.00
2018-02-24T09:00:54.369Z,82.00
2018-02-24T09:03:20.728Z,81.90
2018-02-24T09:05:47.077Z,82.40
2018-02-24T09:08:13.461Z,82.00
2018-02-24T09:10:39.760Z,82.20
2018-02-24T09:13:06.853Z,80.90
2018-02-24T09:15:33.168Z,80.80
2018-02-24T09:17:59.470Z,80.80
2018-02-24T09:20:26.549Z,81.30
2018-02-24T09:22:52.877Z,81.30
2018-02-24T09:25:19.202Z,81.30
2018-02-24T09:27:45.521Z,82.10
2018-02-24T09:30:11.843Z,82.20
2018-02-24T09:32:38.908Z,81.00
2018-02-24T09:35:05.229Z,81.00
2018-02-24T09:37:32.289Z,82.90
2018-02-24T09:39:58.588Z,82.80
2018-02-24T09:42:25.679Z,82.90
2018-02-24T09:44:51.989Z,82.80
2018-02-24T09:47:19.039Z,82.50
2018-02-24T09:49:45.352Z,82.50
2018-02-24T09:52:18.663Z,82.50
2018-02-24T09:54:45.733Z,83.20
2018-02-24T09:57:12.044Z,83.00
2018-02-24T09:59:38.348Z,82.00
2018-02-24T10:02:04.663Z,80.40
2018-02-24T10:04:31.048Z,81.10
2018-02-24T10:06:57.421Z,80.10
2018-02-24T10:09:23.774Z,79.10
2018-02-24T10:11:50.832Z,78.40
2018-02-24T10:14:17.332Z,78.30
2018-02-24T10:16:43.641Z,79.20
2018-02-24T10:19:09.983Z,79.10
2018-02-24T10:21:36.359Z,77.90
2018-02-24T10:24:02.668Z,77.80
2018-02-24T10:26:28.984Z,77.80
2018-02-24T10:28:55.342Z,77.50
2018-02-24T10:31:21.634Z,78.50
2018-02-24T10:33:47.941Z,78.90
2018-02-24T10:36:14.266Z,77.80
2018-02-24T10:38:40.582Z,76.90
2018-02-24T10:41:07.604Z,75.60
2018-02-24T10:43:33.916Z,75.60
2018-02-24T10:46:00.217Z,75.20
2018-02-24T10:48:26.515Z,74.70
2018-02-24T10:50:52.816Z,74.30
2018-02-24T10:53:19.137Z,74.10
2018-02-24T10:55:46.926Z,74.70
2018-02-24T10:58:13.989Z,76.30
2018-02-24T11:00:40.301Z,76.10
2018-02-24T11:03:06.622Z,78.20
2018-02-24T11:05:32.960Z,79.80
2018-02-24T11:08:00.023Z,82.20
2018-02-24T11:10:27.071Z,83.20
2018-02-24T11:12:54.122Z,84.10
2018-02-24T11:15:20.414Z,84.00
2018-02-24T11:17:46.700Z,85.00
2018-02-24T11:20:13.017Z,85.90
2018-02-24T11:22:39.317Z,86.70
2018-02-24T11:25:05.631Z,87.50
2018-02-24T11:27:31.941Z,86.80
2018-02-24T11:29:58.239Z,86.10
2018-02-24T11:32:24.554Z,86.70
2018-02-24T11:34:50.869Z,85.70
2018-02-24T11:37:17.184Z,83.30
2018-02-24T11:39:43.735Z,84.10
2018-02-24T11:42:10.054Z,83.10
2018-02-24T11:44:37.111Z,79.00
2018-02-24T11:47:03.423Z,78.90
2018-02-24T11:49:29.757Z,77.90
2018-02-24T11:51:56.132Z,77.60
2018-02-24T11:54:22.436Z,79.00
2018-02-24T11:56:48.741Z,79.90
2018-02-24T11:59:15.042Z,79.20
2018-02-24T12:01:41.328Z,79.20
2018-02-24T12:04:07.646Z,79.80
2018-02-24T12:06:34.693Z,80.10
2018-02-24T12:09:01.033Z,80.10
2018-02-24T12:11:28.061Z,81.70
2018-02-24T12:13:54.404Z,81.70
2018-02-24T12:16:20.691Z,81.80
2018-02-24T12:18:46.999Z,82.00
2018-02-24T12:21:13.308Z,82.90
2018-02-24T12:23:39.622Z,82.30
2018-02-24T12:26:05.941Z,81.50
2018-02-24T12:28:32.270Z,78.60
2018-02-24T12:30:58.626Z,75.20
2018-02-24T12:33:24.938Z,74.90
2018-02-24T12:35:51.281Z,74.40
2018-02-24T12:38:17.607Z,75.40
2018-02-24T12:40:43.943Z,76.30
2018-02-24T12:43:10.972Z,77.90
2018-02-24T12:45:37.300Z,78.40
2018-02-24T12:48:03.601Z,77.40
2018-02-24T12:50:29.934Z,75.00
2018-02-24T12:52:56.229Z,73.30
2018-02-24T12:55:22.532Z,71.30
2018-02-24T12:57:49.568Z,69.90
2018-02-24T13:00:15.894Z,69.70
2018-02-24T13:02:42.233Z,67.70
2018-02-24T13:05:08.536Z,66.40
2018-02-24T13:07:35.611Z,65.10
2018-02-24T13:10:02.682Z,62.00
2018-02-24T13:12:29.743Z,61.60
2018-02-24T13:14:56.049Z,61.60
2018-02-24T13:17:22.316Z,61.10
2018-02-24T13:19:48.601Z,55.90
2018-02-24T13:22:14.888Z,51.60
2018-02-24T13:24:41.194Z,52.90
2018-02-24T13:27:07.499Z,51.10
2018-02-24T13:29:34.547Z,46.90
2018-02-24T13:32:01.634Z,46.50
2018-02-24T13:34:27.985Z,46.30
2018-02-24T13:36:54.369Z,45.30
2018-02-24T13:39:20.749Z,43.90
2018-02-24T13:41:47.869Z,42.00
2018-02-24T13:44:14.172Z,42.50
2018-02-24T13:46:41.222Z,56.20
2018-02-24T13:49:08.277Z,50.60
2018-02-24T13:51:35.313Z,49.70
2018-02-24T13:54:02.373Z,50.00
2018-02-24T13:56:28.718Z,50.00
2018-02-24T13:58:55.033Z,49.60
2018-02-24T14:01:21.354Z,49.10
2018-02-24T14:03:47.684Z,48.40
2018-02-24T14:06:14.764Z,46.40
2018-02-24T14:08:41.072Z,46.30
2018-02-24T14:11:07.405Z,46.20
2018-02-24T14:13:33.721Z,43.30
2018-02-24T14:16:00.803Z,44.80
2018-02-24T14:18:27.088Z,44.70
2018-02-24T14:20:54.172Z,51.40
2018-02-24T14:23:20.470Z,51.30
2018-02-24T14:25:47.512Z,55.30
2018-02-24T14:28:14.580Z,55.30
2018-02-24T14:30:40.887Z,55.30
2018-02-24T14:33:07.942Z,56.30
2018-02-24T14:35:34.976Z,58.10
2018-02-24T14:38:01.283Z,58.00
2018-02-24T14:40:27.584Z,58.60
2018-02-24T14:42:53.880Z,58.90
2018-02-24T14:45:20.920Z,58.90
2018-02-24T14:47:47.965Z,57.20
2018-02-24T14:50:14.297Z,57.10
2018-02-24T14:52:41.352Z,53.80
2018-02-24T14:55:08.369Z,52.40
2018-02-24T14:57:34.664Z,52.40
2018-02-24T15:00:00.974Z,52.10
2018-02-24T15:02:27.349Z,51.60
2018-02-24T15:04:53.662Z,51.00
2018-02-24T15:07:20.835Z,50.50
2018-02-24T15:09:47.137Z,50.40
2018-02-24T15:12:13.435Z,51.50
2018-02-24T15:14:40.478Z,51.80
2018-02-24T15:17:14.377Z,51.90
2018-02-24T15:19:41.483Z,51.80
2018-02-24T15:22:07.771Z,51.80
2018-02-24T15:24:34.845Z,57.00
2018-02-24T15:27:01.139Z,57.00
2018-02-24T15:29:28.192Z,62.00
2018-02-24T15:31:55.244Z,63.20
2018-02-24T15:34:22.300Z,63.70
2018-02-24T15:36:48.622Z,63.60
2018-02-24T15:39:14.966Z,64.90
2018-02-24T15:41:41.266Z,61.70
2018-02-24T15:44:07.613Z,59.70
2018-02-24T15:46:34.643Z,56.50
2018-02-24T15:49:01.705Z,57.70
2018-02-24T15:51:28.739Z,57.10
2018-02-24T15:53:55.095Z,57.10
2018-02-24T15:56:21.401Z,54.70
2018-02-24T15:58:48.464Z,56.90
2018-02-24T16:01:14.767Z,56.80
2018-02-24T16:03:42.554Z,56.90
2018-02-24T16:06:08.873Z,56.90
2018-02-24T16:08:35.944Z,55.70
2018-02-24T16:11:02.248Z,55.70
2018-02-24T16:13:29.304Z,54.70
2018-02-24T16:15:55.664Z,54.60
2018-02-24T16:18:21.959Z,55.70
2018-02-24T16:20:49.016Z,57.40
2018-02-24T16:23:15.335Z,57.30
2018-02-24T16:25:41.678Z,57.90
2018-02-24T16:28:08.725Z,59.30
2018-02-24T16:30:35.774Z,60.40
2018-02-24T16:33:02.841Z,62.30
2018-02-24T16:35:29.202Z,62.30
2018-02-24T16:37:56.276Z,64.70
2018-02-24T16:40:23.374Z,64.40
2018-02-24T16:42:49.685Z,64.30
2018-02-24T16:45:16.044Z,67.50
2018-02-24T16:47:42.333Z,69.60
2018-02-24T16:50:09.388Z,71.20
2018-02-24T16:52:35.692Z,71.10
2018-02-24T16:55:01.982Z,72.40
2018-02-24T16:57:28.309Z,71.50
2018-02-24T16:59:54.601Z,70.70
2018-02-24T17:02:21.643Z,70.40
2018-02-24T17:04:48.701Z,70.60
2018-02-24T17:07:15.021Z,70.60
2018-02-24T17:09:42.072Z,71.20
2018-02-24T17:12:09.196Z,71.40
2018-02-24T17:14:35.503Z,71.30
2018-02-24T17:17:01.784Z,71.70
2018-02-24T17:19:28.828Z,72.30
2018-02-24T17:21:55.872Z,72.40
2018-02-24T17:24:22.942Z,73.10
2018-02-24T17:26:49.251Z,73.10
2018-02-24T17:29:16.271Z,73.80
2018-02-24T17:31:42.572Z,73.80
2018-02-24T17:34:08.867Z,74.80
2018-02-24T17:36:35.910Z,74.90
2018-02-24T17:39:02.363Z,74.80
2018-02-24T17:41:28.726Z,75.00
2018-02-24T17:43:55.010Z,75.30
2018-02-24T17:46:21.363Z,75.30
2018-02-24T17:48:47.662Z,76.00
2018-02-24T17:51:14.716Z,77.50
2018-02-24T17:53:41.056Z,77.50
2018-02-24T17:56:07.359Z,78.30
2018-02-24T17:58:34.384Z,79.40
2018-02-24T18:01:00.704Z,78.90
2018-02-24T18:03:27.017Z,79.60
2018-02-24T18:05:53.349Z,80.00
2018-02-24T18:08:19.689Z,79.80
2018-02-24T18:10:46.001Z,79.40
2018-02-24T18:13:12.319Z,78.70
2018-02-24T18:15:39.070Z,78.60
2018-02-24T18:18:06.081Z,79.00
2018-02-24T18:20:32.489Z,79.40
2018-02-24T18:22:58.840Z,79.90
2018-02-24T18:25:25.879Z,79.30
2018-02-24T18:27:52.244Z,79.20
2018-02-24T18:30:18.536Z,80.60
2018-02-24T18:32:45.831Z,78.70
2018-02-24T18:35:12.197Z,77.30
2018-02-24T18:37:38.622Z,77.30
2018-02-24T18:40:05.273Z,77.70
2018-02-24T18:42:31.596Z,77.20
2018-02-24T18:44:58.541Z,77.50
2018-02-24T18:47:25.037Z,77.60
2018-02-24T18:49:51.322Z,77.90
2018-02-24T18:52:17.673Z,77.00
2018-02-24T18:54:44.735Z,75.80
2018-02-24T18:57:11.082Z,75.70
2018-02-24T18:59:37.388Z,75.20
2018-02-24T19:02:04.480Z,76.40
2018-02-24T19:04:30.790Z,76.20
2018-02-24T19:06:57.103Z,75.60
2018-02-24T19:09:23.405Z,75.60
2018-02-24T19:11:49.734Z,76.10
2018-02-24T19:14:16.798Z,76.70
2018-02-24T19:16:43.884Z,76.80
2018-02-24T19:19:10.190Z,76.70
2018-02-24T19:21:36.491Z,76.20
2018-02-24T19:24:03.551Z,75.80
2018-02-24T19:26:30.656Z,75.60
2018-02-24T19:28:57.075Z,75.50
2018-02-24T19:31:24.972Z,75.60
2018-02-24T19:33:51.265Z,75.50
2018-02-24T19:36:17.601Z,75.50
2018-02-24T19:38:43.918Z,75.50
2018-02-24T19:41:10.260Z,76.70
2018-02-24T19:43:36.574Z,76.90
2018-02-24T19:46:02.881Z,76.80
2018-02-24T19:48:29.934Z,76.40
2018-02-24T19:50:56.445Z,76.30
2018-02-24T19:53:22.836Z,76.50
2018-02-24T19:55:49.147Z,76.70
2018-02-24T19:58:15.461Z,77.20
2018-02-24T20:00:41.784Z,77.90
2018-02-24T20:03:08.849Z,78.10
2018-02-24T20:05:35.196Z,78.00
2018-02-24T20:08:01.516Z,77.80
2018-02-24T20:10:27.858Z,78.20
2018-02-24T20:12:54.201Z,78.20
2018-02-24T20:15:20.504Z,79.10
2018-02-24T20:17:46.834Z,78.80
2018-02-24T20:20:13.140Z,79.30
2018-02-24T20:22:39.528Z,80.60
2018-02-24T20:25:05.834Z,81.20
2018-02-24T20:27:32.166Z,81.30
2018-02-24T20:29:58.472Z,82.00
2018-02-24T20:32:25.514Z,81.20
2018-02-24T20:34:52.204Z,81.20
2018-02-24T20:37:18.514Z,81.70
2018-02-24T20:39:45.068Z,81.30
2018-02-24T20:42:11.331Z,81.30
2018-02-24T20:44:38.372Z,81.90
2018-02-24T20:47:04.673Z,81.80
2018-02-24T20:49:31.092Z,82.30
2018-02-24T20:51:57.430Z,82.30
2018-02-24T20:54:23.746Z,82.20
2018-02-24T20:56:50.061Z,82.40
2018-02-24T20:59:16.378Z,83.20
2018-02-24T21:01:43.550Z,84.10
2018-02-24T21:04:09.904Z,84.00
2018-02-24T21:06:36.235Z,84.00
2018-02-24T21:09:02.574Z,84.10
2018-02-24T21:11:28.882Z,83.40
2018-02-24T21:13:55.212Z,85.20
2018-02-24T21:16:21.503Z,85.30
2018-02-24T21:18:48.554Z,87.20
2018-02-24T21:21:15.570Z,86.60
2018-02-24T21:23:42.032Z,86.50
2018-02-24T21:26:08.364Z,87.50
2018-02-24T21:28:34.699Z,88.30
2018-02-24T21:31:01.742Z,89.80
2018-02-24T21:33:28.772Z,90.20
2018-02-24T21:35:55.098Z,90.20
2018-02-24T21:38:21.401Z,90.40
2018-02-24T21:40:47.708Z,91.00
2018-02-24T21:43:14.009Z,91.60
2018-02-24T21:45:41.318Z,92.30
2018-02-24T21:48:07.621Z,92.30
2018-02-24T21:50:33.923Z,93.20
2018-02-24T21:53:00.950Z,95.40
2018-02-24T21:55:27.255Z,95.40
2018-02-24T21:57:53.589Z,96.80
2018-02-24T22:00:19.888Z,97.30
2018-02-24T22:02:46.176Z,98.60
2018-02-24T22:05:13.245Z,99.90
2018-02-24T22:07:39.558Z,99.90
2018-02-24T22:10:06.614Z,99.90
2018-02-24T22:12:33.668Z,99.90
2018-02-24T22:15:00.711Z,99.90
2018-02-24T22:17:27.031Z,99.90
2018-02-24T22:19:53.346Z,99.90
2018-02-24T22:22:19.662Z,99.90
2018-02-24T22:24:45.945Z,99.90
2018-02-24T22:27:12.250Z,99.90
2018-02-24T22:29:39.278Z,99.90
2018-02-24T22:32:05.585Z,99.90
2018-02-24T22:34:31.896Z,99.90
2018-02-24T22:36:58.208Z,99.90
2018-02-24T22:39:24.522Z,99.90
2018-02-24T22:41:51.550Z,99.90
2018-02-24T22:44:18.573Z,99.90
2018-02-24T22:46:45.646Z,99.90
2018-02-24T22:49:12.684Z,99.90
2018-02-24T22:51:38.992Z,99.90
2018-02-24T22:54:05.286Z,99.90
2018-02-24T22:56:31.599Z,99.90
2018-02-24T22:58:58.624Z,99.90
2018-02-24T23:01:24.948Z,99.90
2018-02-24T23:03:51.241Z,99.90
2018-02-24T23:06:17.542Z,99.90
2018-02-24T23:08:43.825Z,99.90
2018-02-24T23:11:10.160Z,99.90
2018-02-24T23:13:36.457Z,99.90
2018-02-24T23:16:03.079Z,99.90
2018-02-24T23:18:29.357Z,99.90
2018-02-24T23:20:55.653Z,99.90
2018-02-24T23:23:21.949Z,99.90
2018-02-24T23:25:48.960Z,99.90
2018-02-24T23:28:15.280Z,99.90
2018-02-24T23:30:41.561Z,99.90
2018-02-24T23:33:07.852Z,99.90
2018-02-24T23:35:34.129Z,99.90
2018-02-24T23:38:00.441Z,99.90
2018-02-24T23:40:27.516Z,99.90
2018-02-24T23:42:53.798Z,99.90
2018-02-24T23:45:20.833Z,99.90
2018-02-24T23:47:47.123Z,99.90
2018-02-24T23:50:13.398Z,99.90
2018-02-24T23:52:39.757Z,99.90
2018-02-24T23:55:06.798Z,99.90
2018-02-24T23:57:33.097Z,99.90
2018-02-24T23:59:59.372Z,99.90
